Time;durP1;ratioP1;P1;durP2;ratioP2;P2;SDS_P1;SDS_P2;PMS_P1;PMS_P2;Temp;Humidity;BMP_temperature;BMP_pressure;BME280_temperature;BME280_humidity;BME280_pressure;Samples;Min_cycle;Max_cycle;Signal;HPM_P1;HPM_P2
2022/08/16 00:02:12;;;;;;;;;;;;;;;23.81;60.22;100417.13;5057932;28;20325;-59
2022/08/16 00:04:37;;;;;;;;;;;;;;;23.80;60.44;100409.25;5053113;28;20347;-63
2022/08/16 00:07:02;;;;;;;;;;;;;;;23.80;60.38;100407.41;5061280;28;20411;-62
2022/08/16 00:09:28;;;;;;;;;;;;;;;23.80;60.24;100409.25;5060862;28;19928;-63
2022/08/16 00:11:53;;;;;;;;;;;;;;;23.81;60.41;100406.38;5056516;28;19932;-59
2022/08/16 00:14:21;;;;;;;;;;;;;;;23.83;60.32;100411.56;5061987;28;20442;-59
2022/08/16 00:16:46;;;;;;;;;;;;;;;23.85;60.27;100425.63;5056225;28;19921;-61
2022/08/16 00:19:13;;;;;;;;;;;;;;;23.84;60.38;100432.03;5051517;28;21756;-59
2022/08/16 00:21:38;;;;;;;;;;;;;;;23.78;60.15;100433.59;5053496;28;19924;-57
2022/08/16 00:24:03;;;;;;;;;;;;;;;23.72;60.09;100429.78;5053580;28;19924;-57
2022/08/16 00:26:29;;;;;;;;;;;;;;;23.66;60.01;100422.50;5059449;28;19929;-64
2022/08/16 00:28:54;;;;;;;;;;;;;;;23.60;60.23;100420.53;5052185;28;20019;-61
2022/08/16 00:31:19;;;;;;;;;;;;;;;23.57;60.34;100407.47;5059404;28;19940;-60
2022/08/16 00:33:45;;;;;;;;;;;;;;;23.53;60.39;100414.19;5065282;28;19921;-57
2022/08/16 00:36:10;;;;;;;;;;;;;;;23.49;60.27;100413.75;5064428;28;19927;-63
2022/08/16 00:38:35;;;;;;;;;;;;;;;23.48;60.30;100416.63;5062203;28;19924;-60
2022/08/16 00:41:01;;;;;;;;;;;;;;;23.45;60.43;100417.78;5063172;28;21121;-60
2022/08/16 00:43:28;;;;;;;;;;;;;;;23.42;60.55;100418.19;5058219;28;19945;-60
2022/08/16 00:45:59;;;;;;;;;;;;;;;23.39;60.35;100419.34;5059590;28;20260;-62
2022/08/16 00:48:25;;;;;;;;;;;;;;;23.38;60.63;100431.09;5059719;28;19924;-60
2022/08/16 00:50:50;;;;;;;;;;;;;;;23.36;60.86;100419.75;5065662;28;19943;-57
2022/08/16 00:53:16;;;;;;;;;;;;;;;23.34;60.83;100421.78;5063704;28;19920;-59
2022/08/16 00:55:52;;;;;;;;;;;;;;;23.35;60.81;100433.31;5054194;28;20345;-59
2022/08/16 00:58:18;;;;;;;;;;;;;;;23.36;60.80;100437.69;5046045;28;20007;-59
2022/08/16 01:00:46;;;;;;;;;;;;;;;23.35;60.87;100436.88;5059552;28;19996;-61
2022/08/16 01:03:12;;;;;;;;;;;;;;;23.35;60.92;100439.53;5061939;28;19920;-57
2022/08/16 01:05:37;;;;;;;;;;;;;;;23.36;61.00;100435.84;5072529;28;20049;-59
2022/08/16 01:08:04;;;;;;;;;;;;;;;23.39;60.75;100434.63;5061739;28;20003;-59
2022/08/16 01:10:31;;;;;;;;;;;;;;;23.39;60.78;100430.09;5056344;28;20746;-63
2022/08/16 01:12:57;;;;;;;;;;;;;;;23.37;61.01;100432.13;5051834;28;20345;-62
2022/08/16 01:15:22;;;;;;;;;;;;;;;23.37;60.73;100440.16;5056391;28;21256;-62
2022/08/16 01:17:48;;;;;;;;;;;;;;;23.38;60.75;100444.53;5053792;28;20452;-63
2022/08/16 01:20:14;;;;;;;;;;;;;;;23.36;60.58;100441.22;5051052;28;19956;-59
2022/08/16 01:22:51;;;;;;;;;;;;;;;23.33;61.07;100446.94;5055524;28;19978;-57
2022/08/16 01:25:21;;;;;;;;;;;;;;;23.28;60.75;100438.56;5053923;28;19973;-63
2022/08/16 01:27:50;;;;;;;;;;;;;;;23.26;60.86;100441.47;5055735;28;19986;-59
2022/08/16 01:30:24;;;;;;;;;;;;;;;23.26;61.01;100443.28;5051281;28;19924;-56
2022/08/16 01:32:50;;;;;;;;;;;;;;;23.22;60.98;100445.50;5055753;28;19931;-59
2022/08/16 01:35:42;;;;;;;;;;;;;;;23.20;60.92;100441.31;5061459;28;19929;-60
2022/08/16 01:38:28;;;;;;;;;;;;;;;23.17;61.16;100445.16;5051243;28;20019;-57
2022/08/16 01:41:01;;;;;;;;;;;;;;;23.16;60.98;100450.72;5052503;28;19925;-61
2022/08/16 01:43:27;;;;;;;;;;;;;;;23.16;61.12;100450.72;5049693;28;19924;-60
2022/08/16 01:45:55;;;;;;;;;;;;;;;23.15;61.04;100444.50;5052841;28;19935;-58
2022/08/16 01:48:22;;;;;;;;;;;;;;;23.17;60.91;100452.41;5058868;28;20573;-59
2022/08/16 01:50:49;;;;;;;;;;;;;;;23.16;61.17;100456.09;5052145;28;20323;-56
2022/08/16 01:53:14;;;;;;;;;;;;;;;23.15;61.18;100463.28;5047350;28;19924;-60
2022/08/16 01:55:41;;;;;;;;;;;;;;;23.14;61.19;100458.97;5053684;28;19931;-59
2022/08/16 01:58:07;;;;;;;;;;;;;;;23.14;61.23;100459.78;5050797;28;20402;-59
2022/08/16 02:00:32;;;;;;;;;;;;;;;23.14;61.24;100467.84;5044372;28;19924;-63
2022/08/16 02:02:58;;;;;;;;;;;;;;;23.13;61.34;100474.22;5046518;28;19928;-57
2022/08/16 02:05:23;;;;;;;;;;;;;;;23.10;61.06;100468.38;5053158;28;19925;-61
2022/08/16 02:07:49;;;;;;;;;;;;;;;23.05;61.29;100470.75;5055134;28;19931;-60
2022/08/16 02:10:15;;;;;;;;;;;;;;;23.01;61.33;100475.63;5051871;28;20551;-59
2022/08/16 02:12:41;;;;;;;;;;;;;;;22.96;61.05;100473.50;5054108;28;20109;-56
2022/08/16 02:15:06;;;;;;;;;;;;;;;22.95;61.06;100476.34;5055024;28;19936;-58
2022/08/16 02:17:31;;;;;;;;;;;;;;;22.94;61.18;100485.38;5047789;28;20391;-59
2022/08/16 02:19:57;;;;;;;;;;;;;;;22.91;61.16;100499.19;5051732;28;19929;-57
2022/08/16 02:22:23;;;;;;;;;;;;;;;22.87;61.25;100500.53;5055234;28;20343;-61
2022/08/16 02:24:48;;;;;;;;;;;;;;;22.84;61.41;100502.56;5056505;28;20101;-56
2022/08/16 02:27:14;;;;;;;;;;;;;;;22.83;61.51;100492.84;5052844;28;20462;-60
2022/08/16 02:29:40;;;;;;;;;;;;;;;22.86;61.50;100488.13;5050859;28;20006;-56
2022/08/16 02:32:06;;;;;;;;;;;;;;;22.86;61.20;100488.13;5058450;28;20758;-59
2022/08/16 02:34:31;;;;;;;;;;;;;;;22.84;61.35;100486.47;5057724;28;19932;-61
2022/08/16 02:36:57;;;;;;;;;;;;;;;22.83;61.10;100487.47;5059202;28;19989;-59
2022/08/16 02:39:22;;;;;;;;;;;;;;;22.82;61.21;100485.78;5053715;28;19927;-59
2022/08/16 02:41:49;;;;;;;;;;;;;;;22.80;61.10;100485.13;5052957;28;19935;-59
2022/08/16 02:44:15;;;;;;;;;;;;;;;22.77;61.13;100480.13;5056533;28;19920;-58
2022/08/16 02:46:41;;;;;;;;;;;;;;;22.76;61.26;100478.47;5056637;28;19927;-62
2022/08/16 02:49:07;;;;;;;;;;;;;;;22.75;61.28;100466.06;5055567;28;19924;-58
2022/08/16 02:51:33;;;;;;;;;;;;;;;22.73;61.39;100468.09;5055049;28;20772;-58
2022/08/16 02:53:58;;;;;;;;;;;;;;;22.74;61.63;100459.03;5052289;28;19925;-60
2022/08/16 02:56:23;;;;;;;;;;;;;;;22.73;61.31;100462.72;5054762;28;20613;-60
2022/08/16 02:58:50;;;;;;;;;;;;;;;22.73;61.37;100469.91;5051057;28;19932;-56
2022/08/16 03:01:17;;;;;;;;;;;;;;;22.73;61.53;100473.44;5046633;28;20410;-60
2022/08/16 03:03:42;;;;;;;;;;;;;;;22.72;61.40;100474.47;5050215;28;19932;-59
2022/08/16 03:06:08;;;;;;;;;;;;;;;22.69;61.55;100466.75;5042224;28;19928;-56
2022/08/16 03:08:33;;;;;;;;;;;;;;;22.68;61.72;100476.66;5060043;28;19916;-58
2022/08/16 03:10:58;;;;;;;;;;;;;;;22.68;61.65;100476.66;5056022;28;20019;-55
2022/08/16 03:13:24;;;;;;;;;;;;;;;22.68;61.85;100476.66;5046486;28;19931;-56
2022/08/16 03:15:49;;;;;;;;;;;;;;;22.68;61.53;100476.66;5047977;28;19932;-59
2022/08/16 03:18:14;;;;;;;;;;;;;;;22.66;61.85;100469.78;5051672;28;19928;-59
2022/08/16 03:20:40;;;;;;;;;;;;;;;22.67;61.80;100468.78;5057056;28;20943;-60
2022/08/16 03:23:05;;;;;;;;;;;;;;;22.66;61.69;100467.09;5056030;28;19952;-59
2022/08/16 03:25:31;;;;;;;;;;;;;;;22.64;61.81;100471.81;5052659;28;20329;-59
2022/08/16 03:27:56;;;;;;;;;;;;;;;22.64;61.88;100479.84;5056075;28;19920;-58
2022/08/16 03:30:23;;;;;;;;;;;;;;;22.64;61.85;100480.69;5049813;28;19920;-57
2022/08/16 03:32:49;;;;;;;;;;;;;;;22.66;61.88;100483.19;5055547;28;19925;-59
2022/08/16 03:35:15;;;;;;;;;;;;;;;22.65;61.93;100486.88;5050252;28;19931;-59
2022/08/16 03:37:43;;;;;;;;;;;;;;;22.63;61.97;100489.75;5056833;28;19928;-57
2022/08/16 03:40:09;;;;;;;;;;;;;;;22.59;61.91;100491.09;5052999;28;20279;-60
2022/08/16 03:42:34;;;;;;;;;;;;;;;22.59;61.80;100492.97;5041347;28;19974;-57
2022/08/16 03:44:59;;;;;;;;;;;;;;;22.57;61.98;100495.78;5047294;28;19927;-54
2022/08/16 03:47:26;;;;;;;;;;;;;;;22.57;61.70;100489.59;5054599;28;19999;-59
2022/08/16 03:49:52;;;;;;;;;;;;;;;22.55;61.93;100496.97;5060357;28;20629;-57
2022/08/16 03:52:21;;;;;;;;;;;;;;;22.55;62.01;100513.06;5055453;28;19943;-54
2022/08/16 03:54:49;;;;;;;;;;;;;;;22.56;61.80;100499.47;5049772;28;20661;-59
2022/08/16 03:57:14;;;;;;;;;;;;;;;22.61;61.78;100507.03;5045966;28;19924;-58
2022/08/16 03:59:40;;;;;;;;;;;;;;;22.63;61.78;100504.97;5048820;28;19943;-58
2022/08/16 04:02:05;;;;;;;;;;;;;;;22.66;61.71;100507.31;5047217;28;20212;-62
2022/08/16 04:04:31;;;;;;;;;;;;;;;22.72;61.74;100506.63;5048670;28;19929;-55
2022/08/16 04:06:56;;;;;;;;;;;;;;;22.72;61.55;100509.31;5054504;28;19931;-60
2022/08/16 04:09:22;;;;;;;;;;;;;;;22.75;61.78;100514.34;5049251;28;19939;-59
2022/08/16 04:11:47;;;;;;;;;;;;;;;22.76;61.73;100521.38;5050234;28;19939;-60
2022/08/16 04:14:12;;;;;;;;;;;;;;;22.76;61.51;100520.53;5054116;28;19931;-60
2022/08/16 04:16:37;;;;;;;;;;;;;;;22.75;61.38;100522.38;5051480;28;19951;-60
2022/08/16 04:19:03;;;;;;;;;;;;;;;22.75;61.65;100518.84;5047707;28;20349;-60
2022/08/16 04:21:29;;;;;;;;;;;;;;;22.76;61.50;100521.38;5058365;28;19920;-60
2022/08/16 04:23:54;;;;;;;;;;;;;;;22.78;61.39;100524.69;5056585;28;19920;-59
2022/08/16 04:26:19;;;;;;;;;;;;;;;22.79;61.18;100531.72;5052503;28;19932;-60
2022/08/16 04:28:45;;;;;;;;;;;;;;;22.81;61.42;100534.25;5054150;28;19952;-59
2022/08/16 04:31:10;;;;;;;;;;;;;;;22.80;61.30;100533.41;5057983;28;20286;-60
2022/08/16 04:33:35;;;;;;;;;;;;;;;22.80;61.37;100540.63;5061094;28;20363;-57
2022/08/16 04:36:01;;;;;;;;;;;;;;;22.80;61.45;100538.78;5061316;28;19928;-61
2022/08/16 04:38:26;;;;;;;;;;;;;;;22.81;61.37;100535.09;5059721;28;20011;-58
2022/08/16 04:40:52;;;;;;;;;;;;;;;22.83;61.36;100535.75;5055313;28;20295;-60
2022/08/16 04:43:17;;;;;;;;;;;;;;;22.82;61.16;100534.06;5059742;28;19966;-61
2022/08/16 04:45:42;;;;;;;;;;;;;;;22.84;61.71;100541.94;5061272;28;19928;-59
2022/08/16 04:48:09;;;;;;;;;;;;;;;22.85;61.47;100546.28;5056860;28;19959;-60
2022/08/16 04:50:35;;;;;;;;;;;;;;;22.87;61.54;100551.50;5058338;28;20446;-62
2022/08/16 04:53:00;;;;;;;;;;;;;;;22.87;61.53;100546.97;5061965;28;19932;-56
2022/08/16 04:55:27;;;;;;;;;;;;;;;22.89;61.47;100557.53;5058924;28;19924;-58
2022/08/16 04:57:53;;;;;;;;;;;;;;;22.92;61.53;100551.78;5062722;28;19931;-57
2022/08/16 05:00:21;;;;;;;;;;;;;;;22.89;61.61;100554.84;5054165;28;19959;-57
2022/08/16 05:02:51;;;;;;;;;;;;;;;22.89;61.63;100557.53;5052570;28;19925;-60
2022/08/16 05:05:16;;;;;;;;;;;;;;;22.89;61.91;100560.22;5055778;28;19928;-61
2022/08/16 05:07:42;;;;;;;;;;;;;;;22.90;61.57;100559.22;5058673;28;20353;-56
2022/08/16 05:10:08;;;;;;;;;;;;;;;22.92;61.67;100557.16;5060878;28;19940;-61
2022/08/16 05:12:34;;;;;;;;;;;;;;;22.92;62.01;100558.00;5059776;28;19927;-58
2022/08/16 05:14:59;;;;;;;;;;;;;;;22.91;61.85;100550.97;5066095;28;20601;-59
2022/08/16 05:17:25;;;;;;;;;;;;;;;22.91;62.06;100550.16;5049800;28;19921;-60
2022/08/16 05:19:50;;;;;;;;;;;;;;;22.88;62.04;100550.50;5053837;28;20521;-60
2022/08/16 05:22:16;;;;;;;;;;;;;;;22.86;61.97;100547.97;5049782;28;20015;-60
2022/08/16 05:24:42;;;;;;;;;;;;;;;22.83;61.87;100554.53;5057189;28;20394;-60
2022/08/16 05:27:07;;;;;;;;;;;;;;;22.81;62.32;100556.53;5058153;28;19916;-60
2022/08/16 05:29:32;;;;;;;;;;;;;;;22.83;62.08;100564.44;5054852;28;19917;-60
2022/08/16 05:31:58;;;;;;;;;;;;;;;22.84;62.41;100560.72;5056253;28;19933;-62
2022/08/16 05:34:23;;;;;;;;;;;;;;;22.81;62.22;100556.53;5053078;28;19924;-57
2022/08/16 05:36:49;;;;;;;;;;;;;;;22.84;62.41;100566.06;5063449;28;19924;-54
2022/08/16 05:39:14;;;;;;;;;;;;;;;22.85;62.32;100565.06;5058822;28;19927;-61
2022/08/16 05:41:40;;;;;;;;;;;;;;;22.84;62.44;100558.88;5059745;28;19921;-59
2022/08/16 05:44:05;;;;;;;;;;;;;;;22.84;62.14;100560.72;5054452;28;19920;-58
2022/08/16 05:46:31;;;;;;;;;;;;;;;22.85;62.07;100565.06;5058463;28;19979;-60
2022/08/16 05:48:57;;;;;;;;;;;;;;;22.86;62.12;100565.91;5058224;28;19963;-59
2022/08/16 05:51:22;;;;;;;;;;;;;;;22.86;62.18;100563.25;5067527;28;19929;-56
2022/08/16 05:53:48;;;;;;;;;;;;;;;22.85;62.19;100565.06;5058188;28;19965;-59
2022/08/16 05:56:13;;;;;;;;;;;;;;;22.84;62.48;100561.56;5060361;28;19971;-60
2022/08/16 05:58:40;;;;;;;;;;;;;;;22.85;62.28;100562.38;5063364;28;19920;-59
2022/08/16 06:01:06;;;;;;;;;;;;;;;22.87;62.33;100564.91;5057960;28;20023;-61
2022/08/16 06:03:31;;;;;;;;;;;;;;;22.87;62.31;100565.72;5029873;28;20474;-57
2022/08/16 06:06:02;;;;;;;;;;;;;;;22.89;62.50;100573.63;5068339;22;20269;-58
2022/08/16 06:08:27;;;;;;;;;;;;;;;22.92;62.48;100574.09;4986549;28;20917;-54
2022/08/16 06:10:53;;;;;;;;;;;;;;;22.94;62.51;100574.78;5014371;28;19921;-57
2022/08/16 06:13:30;;;;;;;;;;;;;;;22.97;62.59;100566.38;4988383;28;20915;-57
2022/08/16 06:15:56;;;;;;;;;;;;;;;23.02;62.84;100568.53;4999449;28;19936;-55
2022/08/16 06:18:22;;;;;;;;;;;;;;;23.05;62.73;100573.56;5012312;28;19917;-55
2022/08/16 06:20:48;;;;;;;;;;;;;;;23.08;62.65;100573.19;5005226;28;19932;-56
2022/08/16 06:23:13;;;;;;;;;;;;;;;23.11;62.58;100586.25;5009993;28;19921;-54
2022/08/16 06:25:38;;;;;;;;;;;;;;;23.14;62.68;100588.59;4994528;28;20003;-56
2022/08/16 06:28:04;;;;;;;;;;;;;;;23.20;62.75;100596.97;4998240;28;19917;-57
2022/08/16 06:30:31;;;;;;;;;;;;;;;23.23;62.79;100593.94;5016731;28;20010;-54
2022/08/16 06:32:58;;;;;;;;;;;;;;;23.26;62.89;100605.19;5011990;28;19988;-55
2022/08/16 06:35:23;;;;;;;;;;;;;;;23.29;62.83;100606.69;5011780;28;20638;-55
2022/08/16 06:37:48;;;;;;;;;;;;;;;23.31;62.81;100610.03;5015569;28;19967;-54
2022/08/16 06:40:20;;;;;;;;;;;;;;;23.33;62.96;100613.38;5018692;28;20284;-55
2022/08/16 06:42:46;;;;;;;;;;;;;;;23.37;62.94;100627.28;5011047;28;19932;-56
2022/08/16 06:45:11;;;;;;;;;;;;;;;23.39;62.98;100618.03;5016281;28;20031;-56
2022/08/16 06:47:37;;;;;;;;;;;;;;;23.44;62.93;100631.75;5018863;28;19925;-58
2022/08/16 06:50:02;;;;;;;;;;;;;;;23.47;62.89;100638.63;5006179;28;19936;-59
2022/08/16 06:52:35;;;;;;;;;;;;;;;23.51;62.91;100639.13;5015349;28;19925;-56
2022/08/16 06:55:00;;;;;;;;;;;;;;;23.52;62.75;100636.25;5022206;28;19925;-56
2022/08/16 06:57:26;;;;;;;;;;;;;;;23.53;62.88;100632.56;5020846;28;19925;-55
2022/08/16 06:59:51;;;;;;;;;;;;;;;23.54;62.90;100636.06;5022632;28;19929;-55
2022/08/16 07:02:17;;;;;;;;;;;;;;;23.54;62.89;100646.81;5020338;28;20023;-58
2022/08/16 07:04:43;;;;;;;;;;;;;;;23.55;62.82;100648.47;5022092;28;19931;-53
2022/08/16 07:07:08;;;;;;;;;;;;;;;23.57;63.12;100644.63;5021904;28;19929;-53
2022/08/16 07:09:34;;;;;;;;;;;;;;;23.60;62.87;100651.47;5022960;28;20352;-57
2022/08/16 07:11:59;;;;;;;;;;;;;;;23.63;62.74;100643.06;5017708;28;20446;-55
2022/08/16 07:14:24;;;;;;;;;;;;;;;23.65;62.92;100637.50;5018735;28;19979;-56
2022/08/16 07:16:50;;;;;;;;;;;;;;;23.67;62.70;100638.19;5020305;28;19964;-54
2022/08/16 07:19:15;;;;;;;;;;;;;;;23.68;62.72;100640.66;5023126;28;19917;-53
2022/08/16 07:21:41;;;;;;;;;;;;;;;23.70;62.83;100652.06;5021652;28;19920;-56
2022/08/16 07:24:06;;;;;;;;;;;;;;;23.72;62.74;100655.44;5020076;28;20323;-54
2022/08/16 07:26:32;;;;;;;;;;;;;;;23.74;62.71;100658.78;5019865;28;19956;-54
2022/08/16 07:28:58;;;;;;;;;;;;;;;23.75;62.79;100657.75;5020797;28;19920;-56
2022/08/16 07:31:23;;;;;;;;;;;;;;;23.77;62.64;100656.75;5023188;28;19979;-54
2022/08/16 07:33:49;;;;;;;;;;;;;;;23.78;62.69;100656.56;5024746;28;19925;-55
2022/08/16 07:36:14;;;;;;;;;;;;;;;23.80;62.62;100659.09;5021435;28;19932;-55
2022/08/16 07:38:41;;;;;;;;;;;;;;;23.84;62.54;100657.69;5021996;28;19929;-55
2022/08/16 07:41:06;;;;;;;;;;;;;;;23.85;62.43;100654.00;5022359;28;19921;-55
2022/08/16 07:43:32;;;;;;;;;;;;;;;23.87;62.56;100660.03;5023406;28;19928;-55
2022/08/16 07:45:58;;;;;;;;;;;;;;;23.89;62.49;100653.50;5020276;28;19964;-55
2022/08/16 07:48:23;;;;;;;;;;;;;;;23.93;62.56;100653.09;5022353;28;19924;-53
2022/08/16 07:50:49;;;;;;;;;;;;;;;23.94;62.48;100647.56;5021413;28;19921;-53
2022/08/16 07:53:14;;;;;;;;;;;;;;;23.96;62.51;100653.63;5030838;28;19928;-54
2022/08/16 07:55:40;;;;;;;;;;;;;;;23.99;62.45;100655.13;5030704;28;20020;-57
2022/08/16 07:58:06;;;;;;;;;;;;;;;24.00;62.34;100652.25;5034280;28;19931;-56
2022/08/16 08:00:32;;;;;;;;;;;;;;;24.02;62.19;100650.22;5030557;28;19948;-58
2022/08/16 08:02:59;;;;;;;;;;;;;;;24.04;62.41;100658.94;5035759;28;19932;-54
2022/08/16 08:05:25;;;;;;;;;;;;;;;24.10;62.26;100656.56;5039335;28;19921;-54
2022/08/16 08:07:52;;;;;;;;;;;;;;;24.12;62.11;100654.53;5028278;28;19928;-57
2022/08/16 08:10:17;;;;;;;;;;;;;;;24.15;62.03;100667.59;5026397;28;20440;-55
2022/08/16 08:12:43;;;;;;;;;;;;;;;24.18;61.81;100670.78;5025890;28;20012;-57
2022/08/16 08:15:09;;;;;;;;;;;;;;;24.22;61.95;100662.31;5025565;28;19917;-54
2022/08/16 08:17:38;;;;;;;;;;;;;;;24.23;61.87;100670.22;5024683;28;19925;-54
2022/08/16 08:20:07;;;;;;;;;;;;;;;24.25;61.88;100670.88;5025800;28;19932;-57
2022/08/16 08:22:33;;;;;;;;;;;;;;;24.29;61.84;100671.34;5027041;28;19988;-58
2022/08/16 08:24:59;;;;;;;;;;;;;;;24.31;61.81;100664.75;5009018;28;20538;-57
2022/08/16 08:27:25;;;;;;;;;;;;;;;24.34;61.93;100667.09;5024088;28;20015;-57
2022/08/16 08:29:50;;;;;;;;;;;;;;;24.39;61.83;100673.78;5002902;28;19932;-53
2022/08/16 08:32:16;;;;;;;;;;;;;;;24.42;61.75;100668.06;5023774;28;20034;-57
2022/08/16 08:34:41;;;;;;;;;;;;;;;24.45;61.70;100670.34;5010376;28;19925;-55
2022/08/16 08:37:06;;;;;;;;;;;;;;;24.46;61.58;100655.91;5024353;28;20392;-54
2022/08/16 08:39:33;;;;;;;;;;;;;;;24.49;61.43;100660.91;5025878;28;19929;-54
2022/08/16 08:41:58;;;;;;;;;;;;;;;24.54;61.50;100663.91;5024784;28;19984;-54
2022/08/16 08:44:23;;;;;;;;;;;;;;;24.58;61.55;100669.75;5022691;28;19929;-53
2022/08/16 08:46:49;;;;;;;;;;;;;;;24.62;61.31;100669.19;5026918;28;20316;-57
2022/08/16 08:49:14;;;;;;;;;;;;;;;24.64;61.53;100680.59;5025112;28;20257;-54
2022/08/16 08:51:39;;;;;;;;;;;;;;;24.66;61.21;100681.25;5021563;28;19929;-57
2022/08/16 08:54:07;;;;;;;;;;;;;;;24.71;61.39;100687.97;5025046;28;19925;-55
2022/08/16 08:56:33;;;;;;;;;;;;;;;24.73;61.30;100688.66;5024664;28;20008;-57
2022/08/16 08:58:58;;;;;;;;;;;;;;;24.76;61.13;100688.25;5025611;28;19921;-53
2022/08/16 09:01:27;;;;;;;;;;;;;;;24.80;61.04;100694.94;5023012;28;19952;-59
2022/08/16 09:03:53;;;;;;;;;;;;;;;24.83;60.94;100694.59;5027402;28;20134;-56
2022/08/16 09:06:18;;;;;;;;;;;;;;;24.87;60.58;100695.03;5024901;28;19920;-57
2022/08/16 09:08:43;;;;;;;;;;;;;;;24.89;60.52;100696.53;5025415;28;19932;-56
2022/08/16 09:11:09;;;;;;;;;;;;;;;24.92;60.10;100698.03;5021952;28;20425;-56
2022/08/16 09:13:34;;;;;;;;;;;;;;;24.95;60.08;100698.47;5021511;28;19925;-55
2022/08/16 09:16:00;;;;;;;;;;;;;;;24.98;59.83;100696.44;5020134;28;19931;-54
2022/08/16 09:18:28;;;;;;;;;;;;;;;24.98;59.73;100691.88;5025144;28;19928;-57
2022/08/16 09:20:54;;;;;;;;;;;;;;;24.99;59.70;100698.94;5023971;28;19925;-56
2022/08/16 09:23:20;;;;;;;;;;;;;;;25.01;59.56;100694.22;5025217;28;19921;-57
2022/08/16 09:25:45;;;;;;;;;;;;;;;25.05;59.54;100703.59;5023253;28;19929;-54
2022/08/16 09:28:11;;;;;;;;;;;;;;;25.08;59.45;100691.63;5025219;28;19925;-55
2022/08/16 09:30:37;;;;;;;;;;;;;;;25.11;59.26;100692.06;5024223;28;19967;-57
2022/08/16 09:33:03;;;;;;;;;;;;;;;25.16;59.05;100696.91;5023367;28;19925;-56
2022/08/16 09:35:28;;;;;;;;;;;;;;;25.18;59.07;100691.34;5023239;28;19983;-56
2022/08/16 09:37:56;;;;;;;;;;;;;;;25.19;58.84;100687.63;5026819;28;19960;-55
2022/08/16 09:40:22;;;;;;;;;;;;;;;25.22;58.67;100693.47;5028946;28;19925;-57
2022/08/16 09:42:47;;;;;;;;;;;;;;;25.24;58.79;100686.03;5016773;28;20323;-57
2022/08/16 09:45:13;;;;;;;;;;;;;;;25.27;58.75;100691.06;5022215;28;19963;-55
2022/08/16 09:47:39;;;;;;;;;;;;;;;25.31;58.51;100696.06;5024448;28;19921;-55
2022/08/16 09:50:09;;;;;;;;;;;;;;;25.34;58.50;100699.22;5023945;28;19925;-59
2022/08/16 09:52:36;;;;;;;;;;;;;;;25.37;58.32;100696.16;5023476;28;20296;-58
2022/08/16 09:55:03;;;;;;;;;;;;;;;25.40;58.44;100694.94;5023371;28;19928;-58
2022/08/16 09:57:28;;;;;;;;;;;;;;;25.44;58.29;100700.81;5025253;28;20016;-57
2022/08/16 09:59:53;;;;;;;;;;;;;;;25.46;58.17;100699.63;5023748;28;20399;-59
2022/08/16 10:02:19;;;;;;;;;;;;;;;25.50;57.77;100698.19;5021758;28;19925;-56
2022/08/16 10:04:44;;;;;;;;;;;;;;;25.54;57.78;100696.81;5024325;28;19968;-58
2022/08/16 10:07:09;;;;;;;;;;;;;;;25.59;57.62;100693.53;5022554;28;19961;-58
2022/08/16 10:09:35;;;;;;;;;;;;;;;25.63;57.71;100688.63;5023692;28;19924;-55
2022/08/16 10:14:44;;;;;;;;;;;;;;;25.67;57.26;100692.59;5025542;28;20011;-54
2022/08/16 10:17:11;;;;;;;;;;;;;;;25.68;57.12;100692.41;5023048;28;20003;-54
2022/08/16 10:19:36;;;;;;;;;;;;;;;25.73;56.99;100689.16;5005728;28;20331;-55
2022/08/16 10:22:02;;;;;;;;;;;;;;;25.76;56.89;100683.38;5023648;28;19921;-55
2022/08/16 10:24:27;;;;;;;;;;;;;;;25.80;56.72;100689.22;5022862;28;19925;-55
2022/08/16 10:26:52;;;;;;;;;;;;;;;25.84;56.44;100695.91;5024085;28;19925;-59
2022/08/16 10:29:18;;;;;;;;;;;;;;;25.89;56.06;100695.31;5021591;28;20470;-58
2022/08/16 10:31:43;;;;;;;;;;;;;;;25.93;56.03;100699.31;5023821;28;19979;-54
2022/08/16 10:34:09;;;;;;;;;;;;;;;25.99;56.06;100693.13;5022407;28;19940;-56
2022/08/16 10:36:34;;;;;;;;;;;;;;;26.00;56.04;100698.34;5022885;28;19921;-58
2022/08/16 10:38:59;;;;;;;;;;;;;;;26.05;55.70;100696.94;5023757;28;19940;-56
2022/08/16 10:41:25;;;;;;;;;;;;;;;26.09;55.87;100699.03;5023649;28;19925;-57
2022/08/16 10:43:50;;;;;;;;;;;;;;;26.11;55.51;100694.31;5021543;28;19929;-54
2022/08/16 10:46:16;;;;;;;;;;;;;;;26.13;55.54;100703.06;5023430;28;20015;-56
2022/08/16 10:48:44;;;;;;;;;;;;;;;26.19;55.26;100703.31;5019424;28;19925;-56
2022/08/16 10:51:09;;;;;;;;;;;;;;;26.22;55.17;100692.97;5020799;28;20281;-54
2022/08/16 10:53:35;;;;;;;;;;;;;;;26.28;55.19;100685.97;5024778;28;19928;-53
2022/08/16 10:56:01;;;;;;;;;;;;;;;26.35;55.05;100686.03;5024667;28;20027;-55
2022/08/16 10:58:27;;;;;;;;;;;;;;;26.42;54.72;100687.75;5022672;28;19968;-53
2022/08/16 11:00:52;;;;;;;;;;;;;;;26.50;54.81;100688.66;5005724;28;20434;-56
2022/08/16 11:03:18;;;;;;;;;;;;;;;26.54;54.73;100689.94;5022828;28;19921;-59
2022/08/16 11:05:43;;;;;;;;;;;;;;;26.60;54.36;100690.00;5003028;28;20464;-56
2022/08/16 11:08:10;;;;;;;;;;;;;;;26.67;54.52;100683.78;5020605;28;19921;-58
2022/08/16 11:10:39;;;;;;;;;;;;;;;26.72;54.42;100692.97;5023879;28;19921;-56
2022/08/16 11:13:06;;;;;;;;;;;;;;;26.77;54.27;100685.13;5022241;28;19976;-56
2022/08/16 11:15:33;;;;;;;;;;;;;;;26.82;53.85;100684.53;5024444;28;20335;-57
2022/08/16 11:17:59;;;;;;;;;;;;;;;26.88;53.68;100693.72;5024859;28;19921;-58
2022/08/16 11:20:27;;;;;;;;;;;;;;;26.91;53.47;100691.47;5032175;28;19971;-56
2022/08/16 11:22:53;;;;;;;;;;;;;;;26.96;53.68;100684.63;5033919;28;19924;-57
2022/08/16 11:25:21;;;;;;;;;;;;;;;26.98;53.62;100686.13;5031550;28;19921;-56
2022/08/16 11:27:46;;;;;;;;;;;;;;;27.01;53.50;100677.59;5032701;28;20012;-55
2022/08/16 11:30:13;;;;;;;;;;;;;;;27.04;53.11;100676.38;5018194;28;20024;-54
2022/08/16 11:32:39;;;;;;;;;;;;;;;27.09;53.11;100682.00;5032873;28;19955;-58
2022/08/16 11:35:15;;;;;;;;;;;;;;;27.17;52.83;100684.53;5032587;28;19997;-60
2022/08/16 11:37:48;;;;;;;;;;;;;;;27.26;52.70;100692.47;5032632;28;20335;-60
2022/08/16 11:40:14;;;;;;;;;;;;;;;27.34;52.90;100689.63;5035153;28;19929;-56
2022/08/16 11:42:40;;;;;;;;;;;;;;;27.38;52.70;100688.16;5031180;28;19921;-60
2022/08/16 11:45:05;;;;;;;;;;;;;;;27.43;52.31;100690.28;5033742;28;19923;-59
2022/08/16 11:47:31;;;;;;;;;;;;;;;27.47;52.46;100692.41;5032218;28;19971;-59
2022/08/16 11:49:56;;;;;;;;;;;;;;;27.54;52.26;100695.94;5031220;28;19924;-56
2022/08/16 11:52:22;;;;;;;;;;;;;;;27.62;51.90;100696.81;5031002;28;19944;-57
2022/08/16 11:54:48;;;;;;;;;;;;;;;27.71;51.63;100692.06;5031223;28;19921;-58
2022/08/16 11:57:13;;;;;;;;;;;;;;;27.77;51.34;100691.22;5028089;28;19947;-56
2022/08/16 11:59:39;;;;;;;;;;;;;;;27.83;51.43;100695.81;5030945;28;19921;-57
2022/08/16 12:02:05;;;;;;;;;;;;;;;27.88;51.24;100700.63;5007301;28;19921;-56
2022/08/16 12:04:32;;;;;;;;;;;;;;;27.93;51.49;100695.44;5032578;28;19932;-54
2022/08/16 12:06:58;;;;;;;;;;;;;;;27.98;51.33;100692.97;5032319;28;20248;-60
2022/08/16 12:09:23;;;;;;;;;;;;;;;28.06;51.35;100702.75;5025372;28;19927;-56
2022/08/16 12:11:49;;;;;;;;;;;;;;;28.13;50.94;100695.50;5033609;28;19933;-57
2022/08/16 12:14:14;;;;;;;;;;;;;;;28.19;50.68;100686.56;5034080;28;19976;-56
2022/08/16 12:16:39;;;;;;;;;;;;;;;28.24;50.45;100689.47;5029164;28;19937;-56
2022/08/16 12:19:07;;;;;;;;;;;;;;;28.28;50.39;100693.44;5033722;28;19925;-59
2022/08/16 12:21:33;;;;;;;;;;;;;;;28.37;50.21;100698.63;5031206;28;19932;-57
2022/08/16 12:23:58;;;;;;;;;;;;;;;28.42;49.59;100702.38;5026952;28;19924;-58
2022/08/16 12:26:24;;;;;;;;;;;;;;;28.47;49.81;100693.63;5031410;28;20449;-57
2022/08/16 12:28:52;;;;;;;;;;;;;;;28.51;49.76;100694.88;5016629;28;20471;-55
2022/08/16 12:31:17;;;;;;;;;;;;;;;28.59;49.46;100697.38;5032644;28;19944;-57
2022/08/16 12:33:43;;;;;;;;;;;;;;;28.64;48.96;100687.81;5024997;28;19924;-56